Time;durP1;ratioP1;P1;durP2;ratioP2;P2;SDS_P1;SDS_P2;PMS_P1;PMS_P2;Temp;Humidity;BMP_temperature;BMP_pressure;BME280_temperature;BME280_humidity;BME280_pressure;Samples;Min_cycle;Max_cycle;Signal;HPM_P1;HPM_P2
2022/11/18 00:01:10;;;;;;;16.77;12.85;;;7.90;95.60;;;;;;4993451;28;20090;-76
2022/11/18 00:03:37;;;;;;;16.10;12.35;;;7.90;95.60;;;;;;4993864;28;20053;-75
2022/11/18 00:06:03;;;;;;;14.77;12.02;;;7.90;95.70;;;;;;4993968;28;20129;-75
2022/11/18 00:08:29;;;;;;;15.10;11.95;;;7.90;95.60;;;;;;4993774;28;20046;-75
2022/11/18 00:10:55;;;;;;;15.48;11.98;;;7.90;95.70;;;;;;4977529;28;20097;-74
2022/11/18 00:16:07;;;;;;;18.27;13.27;;;7.90;95.70;;;;;;4993645;28;20074;-74
2022/11/18 00:18:33;;;;;;;16.95;13.13;;;7.80;95.70;;;;;;4993574;28;20042;-75
2022/11/18 00:21:12;;;;;;;17.10;13.55;;;7.80;95.60;;;;;;4993449;28;20457;-75
2022/11/18 00:23:38;;;;;;;13.98;12.30;;;7.70;95.60;;;;;;4993577;28;20069;-75
2022/11/18 00:26:12;;;;;;;18.45;14.05;;;7.70;95.70;;;;;;4961510;28;20043;-75
2022/11/18 00:28:39;;;;;;;17.55;12.23;;;7.60;95.80;;;;;;4993469;28;20042;-74
2022/11/18 00:31:07;;;;;;;15.38;12.65;;;7.70;95.80;;;;;;4993490;28;20105;-75
2022/11/18 00:33:35;;;;;;;18.17;14.20;;;7.70;95.70;;;;;;4993440;28;20042;-75
2022/11/18 00:36:02;;;;;;;17.90;13.30;;;7.70;95.70;;;;;;4976975;28;20038;-74
2022/11/18 00:38:28;;;;;;;18.80;13.38;;;7.60;95.80;;;;;;4992985;28;20120;-75
2022/11/18 00:41:02;;;;;;;18.67;15.35;;;7.70;95.90;;;;;;4993131;28;20061;-75
2022/11/18 00:43:29;;;;;;;16.05;13.27;;;7.60;95.90;;;;;;4993203;28;20478;-75
2022/11/18 00:45:55;;;;;;;18.25;14.02;;;7.60;95.90;;;;;;4992841;28;20073;-75
2022/11/18 00:48:22;;;;;;;16.80;13.55;;;7.60;95.80;;;;;;4992803;28;20073;-75
2022/11/18 00:50:53;;;;;;;18.88;14.52;;;7.60;95.80;;;;;;4992964;28;20076;-75
2022/11/18 00:53:21;;;;;;;17.40;14.60;;;7.60;95.80;;;;;;4992493;28;20046;-75
2022/11/18 00:55:46;;;;;;;18.52;15.18;;;7.60;95.80;;;;;;4976813;28;20038;-75
2022/11/18 00:58:15;;;;;;;19.08;15.63;;;7.60;95.80;;;;;;4992561;28;20509;-75
2022/11/18 01:00:48;;;;;;;22.27;16.30;;;7.60;96.00;;;;;;4992610;28;20117;-76
2022/11/18 01:03:14;;;;;;;19.52;16.50;;;7.50;96.10;;;;;;4991632;28;20050;-75
2022/11/18 01:05:40;;;;;;;20.40;15.93;;;7.50;96.20;;;;;;4992635;28;20046;-75
2022/11/18 01:08:08;;;;;;;19.83;16.90;;;7.40;96.30;;;;;;4992521;28;20053;-75
2022/11/18 01:10:35;;;;;;;18.95;15.38;;;7.50;96.30;;;;;;4992675;28;20054;-76
2022/11/18 01:13:20;;;;;;;22.00;17.20;;;7.30;96.30;;;;;;4991459;28;20125;-75
2022/11/18 01:15:48;;;;;;;;;;;7.40;96.30;;;;;;4965624;28;20478;-75
2022/11/18 01:18:14;;;;;;;21.88;17.05;;;7.30;96.30;;;;;;4992461;28;19968;-76
2022/11/18 01:20:40;;;;;;;22.00;17.50;;;7.30;96.30;;;;;;4976129;28;20548;-76
2022/11/18 01:23:06;;;;;;;24.98;19.48;;;7.30;96.20;;;;;;4976259;28;20038;-75
2022/11/18 01:25:31;;;;;;;25.67;19.23;;;7.30;96.20;;;;;;4992320;28;20096;-76
2022/11/18 01:27:57;;;;;;;21.60;18.92;;;7.20;96.20;;;;;;4992357;28;20042;-76
2022/11/18 01:30:23;;;;;;;24.05;18.65;;;7.20;96.20;;;;;;4976463;28;20053;-76
2022/11/18 01:32:48;;;;;;;24.17;19.35;;;7.20;96.20;;;;;;4992219;28;20502;-75
2022/11/18 01:35:14;;;;;;;24.85;20.55;;;7.20;96.10;;;;;;4976479;28;20045;-75
2022/11/18 01:37:40;;;;;;;28.85;21.75;;;7.20;96.10;;;;;;4976346;28;20042;-75
2022/11/18 01:40:07;;;;;;;25.27;21.00;;;7.20;96.10;;;;;;4960142;28;20046;-75
2022/11/18 01:42:33;;;;;;;31.42;22.20;;;7.10;96.20;;;;;;4976524;28;20046;-75
2022/11/18 01:45:20;;;;;;;28.58;21.98;;;7.10;96.30;;;;;;4976523;28;20038;-75
2022/11/18 01:47:56;;;;;;;27.33;21.25;;;7.10;96.40;;;;;;4992617;28;20096;-75
2022/11/18 01:50:23;;;;;;;30.73;22.77;;;7.20;96.40;;;;;;4992794;28;20408;-75
2022/11/18 01:52:52;;;;;;;30.00;20.85;;;7.20;96.40;;;;;;4992257;28;20055;-75
2022/11/18 01:55:26;;;;;;;35.22;22.83;;;7.20;96.50;;;;;;4992681;28;20038;-75
2022/11/18 01:58:02;;;;;;;30.23;22.35;;;7.30;96.40;;;;;;4992455;28;20046;-75
2022/11/18 02:00:28;;;;;;;34.58;23.95;;;7.40;96.30;;;;;;4992379;28;20038;-75
2022/11/18 02:02:55;;;;;;;28.83;20.75;;;7.30;96.40;;;;;;4992457;28;20046;-75
2022/11/18 02:05:21;;;;;;;36.85;25.85;;;7.40;96.30;;;;;;4992651;28;20096;-75
2022/11/18 02:07:47;;;;;;;37.35;24.48;;;7.40;96.40;;;;;;4992520;28;20494;-74
2022/11/18 02:10:20;;;;;;;36.97;23.75;;;7.50;96.30;;;;;;4976102;28;20516;-75
2022/11/18 02:12:46;;;;;;;37.75;24.20;;;7.50;96.20;;;;;;4992370;28;20050;-75
2022/11/18 02:15:12;;;;;;;38.10;24.23;;;7.50;96.30;;;;;;4992523;28;20069;-75
2022/11/18 02:17:58;;;;;;;34.50;22.38;;;7.60;96.20;;;;;;4976024;28;20478;-75
2022/11/18 02:20:32;;;;;;;33.72;23.25;;;7.60;96.30;;;;;;4991673;28;20050;-75
2022/11/18 02:23:35;;;;;;;37.85;24.00;;;7.60;96.30;;;;;;4992159;28;20046;-74
2022/11/18 02:26:16;;;;;;;40.63;25.33;;;7.60;96.30;;;;;;4995844;28;20533;-75
2022/11/18 02:29:01;;;;;;;37.85;23.63;;;7.60;96.50;;;;;;4995678;28;20512;-75
2022/11/18 02:31:38;;;;;;;39.60;24.88;;;7.60;96.50;;;;;;4979378;28;20049;-75
2022/11/18 02:34:37;;;;;;;36.20;23.70;;;7.70;96.40;;;;;;4979514;28;20047;-75
2022/11/18 02:37:12;;;;;;;38.10;23.55;;;7.70;96.30;;;;;;4995695;28;20042;-76
2022/11/18 02:39:46;;;;;;;37.40;23.67;;;7.70;96.40;;;;;;4979343;28;20073;-75
2022/11/18 02:42:15;;;;;;;35.30;22.40;;;7.70;96.30;;;;;;4995872;28;20128;-76
2022/11/18 02:44:46;;;;;;;40.85;25.20;;;7.70;96.40;;;;;;4995554;28;20042;-76
2022/11/18 02:47:14;;;;;;;37.80;23.58;;;7.80;96.40;;;;;;4995304;28;20064;-75
2022/11/18 02:49:45;;;;;;;40.97;26.02;;;7.80;96.40;;;;;;4995308;28;20050;-74
2022/11/18 02:52:13;;;;;;;41.78;24.70;;;7.70;96.40;;;;;;4995167;28;20054;-75
2022/11/18 02:54:42;;;;;;;41.53;26.27;;;7.80;96.40;;;;;;4979152;28;20078;-75
2022/11/18 02:57:08;;;;;;;40.53;24.45;;;7.80;96.40;;;;;;4995302;28;20039;-75
2022/11/18 02:59:34;;;;;;;38.40;24.70;;;7.80;96.40;;;;;;4995202;28;20050;-75
2022/11/18 03:02:00;;;;;;;41.80;25.00;;;7.80;96.40;;;;;;4978849;28;20042;-75
2022/11/18 03:04:26;;;;;;;47.67;27.38;;;7.80;96.50;;;;;;4995073;28;20134;-74
2022/11/18 03:07:13;;;;;;;50.45;25.88;;;7.80;96.50;;;;;;4995151;28;20042;-75
2022/11/18 03:09:43;;;;;;;40.35;25.45;;;7.80;96.50;;;;;;4994876;28;20501;-75
2022/11/18 03:12:26;;;;;;;37.70;23.73;;;7.90;96.50;;;;;;4994747;28;20045;-75
2022/11/18 03:14:52;;;;;;;36.33;23.67;;;7.80;96.50;;;;;;4978488;28;20040;-76
2022/11/18 03:17:24;;;;;;;41.28;26.13;;;7.80;96.60;;;;;;4979032;28;20034;-74
2022/11/18 03:19:57;;;;;;;47.38;28.25;;;7.80;96.60;;;;;;4994685;28;20042;-75
2022/11/18 03:22:30;;;;;;;42.70;25.10;;;7.80;96.60;;;;;;4994786;28;20046;-74
2022/11/18 03:25:30;;;;;;;43.70;26.98;;;7.80;96.70;;;;;;4994760;28;20486;-74
2022/11/18 03:28:26;;;;;;;37.28;24.30;;;7.80;96.70;;;;;;4976209;28;20050;-76
2022/11/18 03:30:58;;;;;;;37.65;23.20;;;7.90;96.60;;;;;;4994876;28;20038;-75
2022/11/18 03:33:32;;;;;;;43.65;25.35;;;7.90;96.60;;;;;;4994534;28;20137;-74
2022/11/18 03:36:02;;;;;;;36.13;21.30;;;7.80;96.60;;;;;;4993711;28;20042;-77
2022/11/18 03:38:33;;;;;;;41.67;25.98;;;7.90;96.70;;;;;;4994390;28;20097;-74
2022/11/18 03:41:03;;;;;;;43.50;25.33;;;7.90;96.60;;;;;;4993911;28;20482;-75
2022/11/18 03:43:33;;;;;;;43.30;26.13;;;7.80;96.60;;;;;;4994385;28;20046;-75
2022/11/18 03:46:14;;;;;;;44.65;25.83;;;7.90;96.60;;;;;;4994304;28;20049;-75
2022/11/18 03:48:49;;;;;;;44.30;25.88;;;7.80;96.70;;;;;;4994392;28;20043;-74
2022/11/18 03:51:21;;;;;;;40.15;24.65;;;7.80;96.70;;;;;;4994101;28;20050;-75
2022/11/18 03:54:11;;;;;;;41.92;25.77;;;7.90;96.70;;;;;;5010435;28;20137;-74
2022/11/18 03:56:42;;;;;;;39.58;24.60;;;7.80;96.60;;;;;;4994521;28;20034;-75
2022/11/18 03:59:23;;;;;;;40.72;24.98;;;7.80;96.60;;;;;;4994677;28;20042;-75
2022/11/18 04:02:04;;;;;;;35.75;22.75;;;7.80;96.70;;;;;;4994051;28;20045;-74
2022/11/18 04:04:31;;;;;;;43.22;25.08;;;7.90;96.60;;;;;;4993993;28;20047;-76
2022/11/18 04:07:04;;;;;;;42.42;26.05;;;7.90;96.50;;;;;;4978189;28;20430;-76
2022/11/18 04:09:35;;;;;;;38.72;25.60;;;7.80;96.50;;;;;;4993808;28;20046;-74
2022/11/18 04:12:09;;;;;;;45.08;25.98;;;7.80;96.50;;;;;;4993923;28;20046;-75
2022/11/18 04:14:41;;;;;;;39.65;25.00;;;7.80;96.50;;;;;;4994049;28;20398;-76
2022/11/18 04:17:15;;;;;;;42.63;25.83;;;7.80;96.50;;;;;;4993801;28;20045;-75
2022/11/18 04:19:41;;;;;;;42.35;26.23;;;7.80;96.50;;;;;;4993846;28;20095;-74
2022/11/18 04:22:08;;;;;;;40.65;25.63;;;7.80;96.50;;;;;;4993832;28;20545;-75
2022/11/18 04:24:34;;;;;;;43.20;26.55;;;7.80;96.50;;;;;;4961426;28;20042;-75
2022/11/18 04:27:01;;;;;;;34.67;20.98;;;7.80;96.50;;;;;;4993529;28;20057;-74
2022/11/18 04:29:27;;;;;;;35.70;23.88;;;7.80;96.60;;;;;;4977382;28;20044;-76
2022/11/18 04:31:53;;;;;;;38.25;25.52;;;7.80;96.60;;;;;;4977300;28;20034;-75
2022/11/18 04:34:18;;;;;;;41.75;24.63;;;7.80;96.50;;;;;;4993218;28;20512;-75
2022/11/18 04:36:44;;;;;;;32.22;21.35;;;7.80;96.60;;;;;;4976895;28;20398;-75
2022/11/18 04:39:10;;;;;;;37.53;24.80;;;7.80;96.60;;;;;;4993040;28;20088;-75
2022/11/18 04:44:21;;;;;;;35.08;23.98;;;7.80;96.60;;;;;;4979927;28;20100;-74
2022/11/18 04:46:46;;;;;;;38.08;24.45;;;7.80;96.50;;;;;;4976978;28;20092;-74
2022/11/18 04:49:13;;;;;;;32.80;19.23;;;7.80;96.60;;;;;;4976974;28;20042;-74
2022/11/18 04:51:43;;;;;;;37.08;22.50;;;7.80;96.70;;;;;;4993130;28;20054;-75
2022/11/18 04:54:10;;;;;;;41.35;24.30;;;7.80;96.50;;;;;;4993104;28;20077;-74
2022/11/18 04:56:36;;;;;;;41.45;25.45;;;7.80;96.50;;;;;;4976803;28;20034;-74
2022/11/18 04:59:03;;;;;;;40.00;23.02;;;7.70;96.50;;;;;;4992913;28;20157;-76
2022/11/18 05:01:29;;;;;;;36.45;23.23;;;7.70;96.60;;;;;;4976731;28;20486;-74
2022/11/18 05:03:55;;;;;;;33.42;23.00;;;7.70;96.50;;;;;;4993136;28;20464;-74
2022/11/18 05:06:22;;;;;;;33.50;22.85;;;7.70;96.50;;;;;;4992842;28;20053;-75
2022/11/18 05:08:48;;;;;;;38.30;23.63;;;7.70;96.60;;;;;;4992816;28;20049;-74
2022/11/18 05:13:58;;;;;;;31.73;21.67;;;7.70;96.60;;;;;;4979060;28;20133;-75
2022/11/18 05:16:24;;;;;;;34.40;20.98;;;7.70;96.50;;;;;;4992980;28;20082;-75
2022/11/18 05:18:49;;;;;;;38.90;25.75;;;7.70;96.50;;;;;;4976014;28;20474;-76
2022/11/18 05:21:17;;;;;;;40.03;25.80;;;7.70;96.50;;;;;;4976206;28;20046;-75
2022/11/18 05:23:43;;;;;;;37.50;24.45;;;7.70;96.50;;;;;;4992620;28;20422;-76
2022/11/18 05:26:10;;;;;;;39.47;23.63;;;7.60;96.50;;;;;;4992370;28;20038;-76
2022/11/18 05:28:37;;;;;;;41.58;27.30;;;7.70;96.50;;;;;;4992252;28;20081;-77
2022/11/18 05:31:08;;;;;;;36.33;23.80;;;7.70;96.50;;;;;;4997954;28;20041;-77
2022/11/18 05:33:33;;;;;;;38.90;25.88;;;7.60;96.50;;;;;;4992248;28;20034;-77
2022/11/18 05:36:06;;;;;;;38.10;25.83;;;7.60;96.50;;;;;;4991743;28;20129;-77
2022/11/18 05:38:33;;;;;;;39.75;24.65;;;7.60;96.50;;;;;;4991918;28;20038;-76
2022/11/18 05:40:59;;;;;;;37.95;23.95;;;7.60;96.50;;;;;;4992158;28;20070;-76
2022/11/18 05:43:25;;;;;;;44.45;26.20;;;7.60;96.60;;;;;;4991140;28;20038;-76
2022/11/18 05:45:51;;;;;;;35.72;23.40;;;7.60;96.60;;;;;;4996986;28;20048;-76
2022/11/18 05:48:17;;;;;;;39.22;25.95;;;7.60;96.60;;;;;;5001688;28;20042;-75
2022/11/18 05:50:47;;;;;;;38.85;26.38;;;7.60;96.60;;;;;;4997983;28;20035;-75
2022/11/18 05:53:13;;;;;;;34.60;24.27;;;7.60;96.60;;;;;;4991811;28;20046;-75
2022/11/18 05:55:44;;;;;;;37.88;24.30;;;7.60;96.70;;;;;;4995425;28;20033;-75
2022/11/18 05:58:10;;;;;;;36.60;23.75;;;7.60;96.70;;;;;;4991199;28;20088;-76
2022/11/18 06:00:36;;;;;;;35.92;21.20;;;7.60;96.50;;;;;;4978755;28;20037;-76
2022/11/18 06:03:07;;;;;;;35.72;23.25;;;7.60;96.50;;;;;;4995290;28;20116;-75
2022/11/18 06:05:32;;;;;;;38.58;25.80;;;7.60;96.50;;;;;;4995464;28;20088;-75
2022/11/18 06:07:58;;;;;;;35.97;23.17;;;7.60;96.40;;;;;;4995357;28;20042;-75
2022/11/18 06:10:29;;;;;;;36.03;24.38;;;7.60;96.50;;;;;;4979249;28;20050;-75
2022/11/18 06:13:01;;;;;;;34.55;23.23;;;7.60;96.50;;;;;;4995194;28;20490;-76
2022/11/18 06:15:32;;;;;;;41.25;24.85;;;7.70;96.40;;;;;;4995268;28;20038;-74
2022/11/18 06:18:26;;;;;;;33.72;20.85;;;7.60;96.40;;;;;;4995576;28;20113;-75
2022/11/18 06:20:58;;;;;;;33.80;22.13;;;7.60;96.50;;;;;;4976562;28;20069;-75
2022/11/18 06:23:25;;;;;;;31.08;20.80;;;7.60;96.30;;;;;;5003908;28;20073;-77
2022/11/18 06:25:51;;;;;;;33.25;22.63;;;7.60;96.30;;;;;;4998833;28;20131;-75
2022/11/18 06:28:17;;;;;;;37.22;25.42;;;7.60;96.30;;;;;;5015265;28;20104;-75
2022/11/18 06:30:43;;;;;;;33.60;21.25;;;7.60;96.40;;;;;;5014954;28;20485;-75
2022/11/18 06:33:09;;;;;;;33.20;22.35;;;7.60;96.40;;;;;;4998568;28;20045;-75
2022/11/18 06:35:34;;;;;;;36.17;23.45;;;7.60;96.40;;;;;;4987634;28;20389;-76
2022/11/18 06:38:00;;;;;;;32.60;22.98;;;7.60;96.40;;;;;;5008106;28;20490;-76
2022/11/18 06:40:26;;;;;;;31.13;21.17;;;7.60;96.30;;;;;;5015096;28;20061;-75
2022/11/18 06:45:36;;;;;;;35.10;21.25;;;7.60;96.30;;;;;;4987192;28;20540;-76
2022/11/18 06:48:03;;;;;;;32.50;21.73;;;7.60;96.30;;;;;;4998239;28;20042;-76
2022/11/18 06:50:28;;;;;;;34.58;20.88;;;7.60;96.40;;;;;;4998449;28;20100;-78
2022/11/18 06:52:54;;;;;;;34.10;20.85;;;7.60;96.40;;;;;;5014447;28;20057;-76
2022/11/18 06:55:20;;;;;;;33.63;21.23;;;7.50;96.40;;;;;;5030977;28;20481;-75
2022/11/18 06:57:46;;;;;;;34.00;22.98;;;7.60;96.40;;;;;;4998035;28;20406;-75
2022/11/18 07:00:12;;;;;;;32.17;20.05;;;7.50;96.40;;;;;;5014390;28;20037;-75
2022/11/18 07:02:38;;;;;;;39.45;23.73;;;7.50;96.40;;;;;;4997998;28;20096;-75
2022/11/18 07:05:05;;;;;;;39.88;24.17;;;7.50;96.40;;;;;;5014568;28;20050;-76
2022/11/18 07:07:33;;;;;;;38.05;23.10;;;7.50;96.50;;;;;;5014115;28;20233;-75
2022/11/18 07:09:59;;;;;;;36.65;21.45;;;7.50;96.40;;;;;;5013652;28;20571;-75
2022/11/18 07:12:24;;;;;;;38.17;23.88;;;7.50;96.50;;;;;;5013590;28;20038;-75
2022/11/18 07:14:50;;;;;;;33.38;21.85;;;7.50;96.40;;;;;;4994880;28;20048;-76
2022/11/18 07:17:16;;;;;;;37.53;22.50;;;7.50;96.50;;;;;;4997906;28;20494;-76
2022/11/18 07:19:41;;;;;;;29.48;19.70;;;7.50;96.40;;;;;;4997432;28;20378;-75
2022/11/18 07:22:07;;;;;;;32.65;21.13;;;7.50;96.40;;;;;;4997277;28;20666;-77
2022/11/18 07:24:33;;;;;;;31.75;19.85;;;7.50;96.40;;;;;;5013642;28;20046;-78
2022/11/18 07:26:59;;;;;;;33.85;20.38;;;7.50;96.40;;;;;;4997690;28;20462;-76
2022/11/18 07:29:24;;;;;;;34.25;19.95;;;7.50;96.40;;;;;;5013891;28;20038;-76
2022/11/18 07:31:50;;;;;;;29.35;20.63;;;7.50;96.40;;;;;;4997432;28;20056;-76
2022/11/18 07:34:16;;;;;;;30.35;20.50;;;7.50;96.40;;;;;;5013679;28;20037;-75
2022/11/18 07:36:42;;;;;;;33.85;21.17;;;7.50;96.40;;;;;;5013731;28;20056;-76
2022/11/18 07:39:08;;;;;;;30.75;21.08;;;7.40;96.30;;;;;;4990592;28;20121;-76
2022/11/18 07:41:34;;;;;;;32.22;20.65;;;7.40;96.30;;;;;;5006841;28;20249;-77
2022/11/18 07:44:02;;;;;;;33.85;21.67;;;7.50;96.40;;;;;;4965898;28;20101;-77
2022/11/18 07:46:33;;;;;;;31.30;20.17;;;7.40;96.40;;;;;;4993848;28;20049;-78
2022/11/18 07:49:01;;;;;;;34.45;21.35;;;7.40;96.50;;;;;;4993860;28;20038;-77
2022/11/18 07:51:30;;;;;;;33.38;21.60;;;7.40;96.50;;;;;;4993401;28;20116;-78
2022/11/18 07:53:55;;;;;;;29.70;20.55;;;7.40;96.50;;;;;;4993783;28;20042;-78
2022/11/18 07:56:21;;;;;;;35.20;22.15;;;7.40;96.50;;;;;;4977425;28;20053;-78
2022/11/18 07:58:52;;;;;;;31.10;20.48;;;7.40;96.50;;;;;;4993856;28;20198;-77
2022/11/18 08:01:20;;;;;;;34.65;20.10;;;7.40;96.50;;;;;;4994020;28;20419;-78
2022/11/18 08:03:46;;;;;;;33.47;21.15;;;7.40;96.50;;;;;;4993834;28;20046;-78
2022/11/18 08:06:14;;;;;;;29.58;19.45;;;7.40;96.50;;;;;;4993502;28;20486;-78
2022/11/18 08:08:40;;;;;;;31.08;21.70;;;7.40;96.50;;;;;;4993508;28;20082;-77
2022/11/18 08:11:08;;;;;;;30.77;19.23;;;7.40;96.50;;;;;;4977445;28;20085;-77
2022/11/18 08:13:35;;;;;;;33.92;22.02;;;7.40;96.50;;;;;;4993350;28;20050;-77
2022/11/18 08:16:03;;;;;;;35.92;21.20;;;7.40;96.50;;;;;;4993650;28;20034;-76
2022/11/18 08:18:30;;;;;;;34.55;20.88;;;7.40;96.40;;;;;;4993103;28;20121;-77
2022/11/18 08:21:01;;;;;;;38.63;22.67;;;7.40;96.40;;;;;;4993328;28;20034;-78
2022/11/18 08:23:27;;;;;;;37.20;20.90;;;7.30;96.40;;;;;;4992974;28;20049;-77
2022/11/18 08:26:00;;;;;;;40.40;22.00;;;7.30;96.40;;;;;;4993205;28;20461;-77
2022/11/18 08:28:25;;;;;;;36.00;21.85;;;7.30;96.40;;;;;;4993027;28;20494;-78
2022/11/18 08:30:51;;;;;;;44.72;23.58;;;7.30;96.40;;;;;;4977241;28;20077;-77
2022/11/18 08:33:16;;;;;;;37.38;22.75;;;7.30;96.40;;;;;;4992906;28;20125;-78
2022/11/18 08:35:42;;;;;;;36.22;20.70;;;7.30;96.40;;;;;;4993279;28;20158;-77
2022/11/18 08:38:08;;;;;;;37.13;23.05;;;7.30;96.40;;;;;;4976708;28;20038;-78
2022/11/18 08:40:34;;;;;;;37.38;24.00;;;7.40;96.40;;;;;;4993332;28;20042;-77
2022/11/18 08:42:59;;;;;;;36.28;19.17;;;7.30;96.40;;;;;;4992941;28;20508;-78
2022/11/18 08:45:25;;;;;;;33.70;20.83;;;7.40;96.40;;;;;;4976820;28;20046;-77
2022/11/18 08:47:51;;;;;;;31.23;19.67;;;7.40;96.30;;;;;;4976825;28;20406;-76
2022/11/18 08:50:16;;;;;;;35.92;18.77;;;7.40;96.30;;;;;;4993009;28;20126;-77
2022/11/18 08:52:42;;;;;;;34.30;20.33;;;7.30;96.30;;;;;;4992491;28;20066;-77
2022/11/18 08:55:08;;;;;;;37.50;21.13;;;7.40;96.30;;;;;;4992933;28;20045;-77
2022/11/18 08:57:33;;;;;;;33.15;19.50;;;7.40;96.30;;;;;;4960263;28;20494;-77
2022/11/18 08:59:59;;;;;;;36.03;20.20;;;7.30;96.30;;;;;;4976495;28;20038;-77
2022/11/18 09:02:25;;;;;;;29.13;18.20;;;7.30;96.30;;;;;;4976452;28;20042;-77
2022/11/18 09:04:51;;;;;;;35.03;18.92;;;7.30;96.20;;;;;;4976428;28;20082;-79
2022/11/18 09:07:18;;;;;;;32.17;18.77;;;7.30;96.20;;;;;;4976567;28;20457;-78
2022/11/18 09:09:43;;;;;;;27.63;18.05;;;7.30;96.20;;;;;;4976298;28;20746;-76
2022/11/18 09:12:13;;;;;;;33.38;18.60;;;7.30;96.20;;;;;;4992495;28;20054;-77
2022/11/18 09:14:41;;;;;;;30.30;16.63;;;7.30;96.20;;;;;;4992664;28;20048;-77
2022/11/18 09:17:07;;;;;;;29.00;18.20;;;7.30;96.20;;;;;;4992498;28;20050;-76
2022/11/18 09:19:33;;;;;;;32.03;18.83;;;7.30;96.20;;;;;;4992479;28;20413;-76
2022/11/18 09:21:59;;;;;;;31.55;19.45;;;7.30;96.20;;;;;;4992661;28;20133;-76
2022/11/18 09:24:24;;;;;;;26.80;17.55;;;7.30;96.20;;;;;;4992622;28;20038;-76
2022/11/18 09:26:52;;;;;;;27.20;17.10;;;7.40;96.20;;;;;;4992249;28;20541;-76
2022/11/18 09:29:18;;;;;;;24.70;14.80;;;7.30;96.20;;;;;;4992307;28;20047;-77
2022/11/18 09:31:44;;;;;;;25.13;15.95;;;7.40;96.20;;;;;;4992323;28;20085;-76
2022/11/18 09:34:10;;;;;;;24.17;13.70;;;7.50;96.00;;;;;;4993265;28;20078;-76
2022/11/18 09:36:36;;;;;;;26.02;15.35;;;7.40;95.90;;;;;;4980097;28;20564;-76
2022/11/18 09:39:02;;;;;;;26.40;14.95;;;7.40;96.00;;;;;;4996159;28;20046;-76
2022/11/18 09:41:38;;;;;;;24.52;14.95;;;7.50;96.00;;;;;;4995668;28;20504;-76
2022/11/18 09:44:29;;;;;;;26.60;15.23;;;7.50;95.90;;;;;;4996204;28;20046;-75
2022/11/18 09:47:13;;;;;;;29.73;16.10;;;7.50;96.00;;;;;;4979968;28;20050;-77
2022/11/18 09:49:43;;;;;;;33.50;16.60;;;7.50;95.80;;;;;;4996214;28;20486;-76
2022/11/18 09:52:14;;;;;;;21.38;14.45;;;7.50;95.90;;;;;;4995985;28;20081;-77
2022/11/18 09:54:40;;;;;;;25.77;15.95;;;7.50;95.80;;;;;;4996049;28;20046;-76
2022/11/18 09:57:19;;;;;;;24.30;14.20;;;7.50;95.90;;;;;;4963527;28;20105;-76
2022/11/18 09:59:45;;;;;;;20.23;12.98;;;7.50;95.80;;;;;;5000129;28;20037;-76
2022/11/18 10:02:46;;;;;;;20.83;12.90;;;7.50;95.80;;;;;;4979723;28;20097;-76
2022/11/18 10:05:18;;;;;;;23.67;13.55;;;7.50;95.80;;;;;;4982963;28;20039;-75
2022/11/18 10:07:57;;;;;;;21.27;12.60;;;7.50;95.70;;;;;;4985945;28;20038;-75
2022/11/18 10:10:33;;;;;;;23.88;13.82;;;7.50;95.80;;;;;;4988404;28;20100;-75
2022/11/18 10:13:19;;;;;;;21.10;12.57;;;7.50;95.70;;;;;;4984106;28;20076;-76
2022/11/18 10:15:57;;;;;;;23.95;13.98;;;7.40;95.70;;;;;;5015521;28;20367;-77
2022/11/18 10:19:10;;;;;;;20.27;12.85;;;7.40;95.70;;;;;;5015029;28;20046;-76
2022/11/18 10:21:40;;;;;;;18.77;12.40;;;7.50;95.70;;;;;;5015379;28;20088;-75
2022/11/18 10:24:24;;;;;;;20.08;13.15;;;7.50;95.40;;;;;;5015162;28;20056;-76
2022/11/18 10:26:58;;;;;;;19.52;12.75;;;7.40;95.40;;;;;;5015089;28;20125;-77
2022/11/18 10:29:24;;;;;;;17.65;11.70;;;7.40;95.50;;;;;;5014958;28;20175;-77
2022/11/18 10:32:04;;;;;;;18.38;12.00;;;7.40;95.50;;;;;;5014981;28;20077;-76
2022/11/18 10:34:31;;;;;;;19.23;12.60;;;7.50;95.50;;;;;;5007019;28;20050;-75
2022/11/18 10:37:20;;;;;;;21.85;13.55;;;7.40;95.50;;;;;;4999456;28;20375;-77
2022/11/18 10:39:51;;;;;;;21.02;12.07;;;7.50;95.50;;;;;;5014625;28;20046;-77
2022/11/18 10:42:39;;;;;;;20.50;13.15;;;7.50;95.50;;;;;;5015016;28;20089;-76
2022/11/18 10:45:24;;;;;;;23.88;13.15;;;7.50;95.50;;;;;;5014474;28;20045;-75
2022/11/18 10:48:01;;;;;;;22.40;14.15;;;7.50;95.50;;;;;;5009238;28;20038;-77
2022/11/18 10:50:44;;;;;;;23.52;13.75;;;7.50;95.40;;;;;;4995126;28;20043;-76
2022/11/18 10:53:29;;;;;;;19.35;13.32;;;7.50;95.40;;;;;;4994771;28;20494;-76
2022/11/18 10:55:59;;;;;;;;;;;7.40;95.40;;;;;;4986920;28;20030;-75
2022/11/18 10:58:27;;;;;;;22.85;13.52;;;7.40;95.30;;;;;;5004569;28;20274;-78
2022/11/18 11:01:04;;;;;;;17.98;12.73;;;7.40;95.30;;;;;;4999941;28;20054;-75
2022/11/18 11:03:32;;;;;;;21.05;13.15;;;7.50;95.40;;;;;;4994803;28;20047;-76
2022/11/18 11:06:25;;;;;;;22.63;14.77;;;7.50;95.30;;;;;;4994788;28;20078;-76
2022/11/18 11:08:54;;;;;;;22.10;14.02;;;7.50;95.30;;;;;;4994551;28;20064;-75
2022/11/18 11:11:59;;;;;;;22.50;13.70;;;7.50;95.30;;;;;;4994900;28;20125;-76
2022/11/18 11:14:35;;;;;;;22.00;14.02;;;7.50;95.20;;;;;;4956001;28;20058;-77
2022/11/18 11:17:03;;;;;;;26.77;13.40;;;7.50;95.20;;;;;;4975079;28;20082;-76
2022/11/18 11:19:48;;;;;;;22.23;12.68;;;7.40;95.30;;;;;;4974839;28;20046;-76
2022/11/18 11:22:15;;;;;;;21.55;11.88;;;7.30;95.10;;;;;;4975283;28;20514;-79
2022/11/18 11:24:40;;;;;;;16.95;11.32;;;7.30;95.20;;;;;;4974959;28;20038;-79
2022/11/18 11:27:32;;;;;;;28.65;12.30;;;7.30;95.20;;;;;;4975134;28;20368;-76
2022/11/18 11:30:18;;;;;;;16.95;10.73;;;7.30;95.20;;;;;;4975129;28;20035;-76
2022/11/18 11:33:16;;;;;;;14.27;10.15;;;7.30;95.30;;;;;;4974959;28;20093;-77
2022/11/18 11:36:13;;;;;;;19.60;12.23;;;7.20;95.20;;;;;;4974804;28;20046;-77
2022/11/18 11:38:54;;;;;;;16.70;11.23;;;7.30;95.10;;;;;;4974575;28;20054;-77
2022/11/18 11:41:23;;;;;;;16.25;11.15;;;7.20;94.90;;;;;;4974960;28;20133;-77
2022/11/18 11:44:04;;;;;;;17.67;11.48;;;7.30;95.00;;;;;;4974846;28;20140;-76
2022/11/18 11:47:45;;;;;;;16.23;9.55;;;7.30;95.00;;;;;;4974579;28;20042;-77
2022/11/18 11:50:02;;;;;;;17.52;10.77;;;7.30;95.00;;;;;;4974603;28;20120;-74
2022/11/18 11:52:53;;;;;;;18.17;12.00;;;7.20;94.90;;;;;;4974341;28;20063;-75
2022/11/18 11:55:37;;;;;;;17.58;10.80;;;7.20;94.90;;;;;;4976452;28;20049;-77
2022/11/18 11:58:29;;;;;;;14.40;9.17;;;7.30;94.80;;;;;;4989892;28;20050;-77
2022/11/18 12:01:08;;;;;;;16.42;10.50;;;7.30;94.80;;;;;;4974617;28;20101;-75
2022/11/18 12:03:42;;;;;;;17.30;11.43;;;7.30;94.80;;;;;;4974336;28;20053;-78
2022/11/18 12:06:09;;;;;;;15.27;10.02;;;7.20;94.70;;;;;;4974302;28;20051;-78
2022/11/18 12:08:38;;;;;;;15.95;9.20;;;7.30;94.80;;;;;;4957992;28;20129;-78
2022/11/18 12:11:27;;;;;;;14.05;9.43;;;7.30;94.60;;;;;;4958033;28;20129;-78
2022/11/18 12:13:53;;;;;;;16.63;10.32;;;7.30;94.50;;;;;;4973981;28;20519;-77
2022/11/18 12:16:49;;;;;;;16.85;10.68;;;7.20;94.40;;;;;;4958079;28;20125;-77
2022/11/18 12:19:19;;;;;;;17.42;10.98;;;7.20;94.60;;;;;;4974081;28;20494;-78
2022/11/18 12:21:45;;;;;;;17.73;11.82;;;7.10;94.30;;;;;;4974151;28;20107;-77
2022/11/18 12:24:17;;;;;;;17.60;11.27;;;7.10;94.30;;;;;;4974089;28;20406;-77
2022/11/18 12:26:45;;;;;;;16.75;10.30;;;7.10;94.20;;;;;;4974162;28;20109;-77
2022/11/18 12:29:20;;;;;;;17.63;11.55;;;7.00;94.30;;;;;;4973713;28;20105;-77
2022/11/18 12:32:00;;;;;;;16.83;11.45;;;7.00;94.40;;;;;;4957619;28;20042;-77
2022/11/18 12:34:39;;;;;;;14.98;10.23;;;6.90;94.40;;;;;;4957776;28;20138;-77
2022/11/18 12:37:23;;;;;;;16.50;10.52;;;7.00;94.40;;;;;;4973648;28;20043;-78
2022/11/18 12:39:58;;;;;;;16.38;9.52;;;7.00;94.50;;;;;;4957596;28;20042;-77
2022/11/18 12:45:49;;;;;;;16.08;9.45;;;6.90;94.40;;;;;;4973778;28;20477;-77
2022/11/18 12:48:39;;;;;;;18.95;11.10;;;7.00;94.40;;;;;;4973438;28;20200;-77
2022/11/18 12:51:14;;;;;;;17.15;10.65;;;7.00;94.50;;;;;;4973139;28;20085;-77
2022/11/18 12:53:47;;;;;;;15.23;9.52;;;7.00;94.40;;;;;;4973461;28;20109;-77
2022/11/18 12:56:16;;;;;;;16.42;10.50;;;7.00;94.50;;;;;;4973512;28;20074;-78
2022/11/18 12:58:46;;;;;;;16.42;9.80;;;7.00;94.50;;;;;;4957473;28;20042;-78
2022/11/18 13:01:15;;;;;;;14.18;9.88;;;7.00;94.50;;;;;;4973659;28;20039;-77
2022/11/18 13:03:41;;;;;;;19.20;10.98;;;7.00;94.40;;;;;;4957186;28;20046;-77
2022/11/18 13:06:39;;;;;;;16.77;10.20;;;7.00;94.40;;;;;;4973383;28;20051;-77
2022/11/18 13:09:18;;;;;;;17.88;11.02;;;7.00;94.50;;;;;;4955033;28;20058;-77
2022/11/18 13:12:00;;;;;;;18.33;10.77;;;7.00;94.50;;;;;;4957419;28;20501;-77
2022/11/18 13:17:51;;;;;;;16.98;11.15;;;7.00;94.50;;;;;;4955937;28;20042;-74